Pagrindinis puslapis
METAR-TAF:

METAR-TAF

Oro uostai :

Alor Setaras, Malaizija

platuma: 06-11-40N, ilguma: 100-24-03E, Aukštis: 5 m

Dabartinis oras

Ataskaita buvo paskelbta 57 minutes, ne 03:00 UTC
Vėjas 4 kt iš Rytų/Šiaurės Rytų, svyruoja nuo Šiaurės/Šiaurės Vakarų ir Rytų/Pietryčių
Temperatūra 31°C
Drėgmė 63%
Slėgis 1010 hPa
Matomumas 10 km arba daugiau
Mažai debesys ne aukštis 2200 ft

METAR: WMKA 290300Z 06004KT 330V120 9999 FEW022 31/23 Q1010

Laikas: 11:57 (03:57 UTC)

Prognozė

Ataskaita buvo paskelbta 4 valandos ir 57 minutes, ne 23:00 UTC
Prognozė galioja nuo 29 metu 00 UTC su 01 metu 00 UTC
Vėjas 6 kt iš Šiaurės Rytų
Matomumas 10 km arba daugiau
Mažai debesys ne aukštis 2000 ft
Tapsmas
nuo 29 metu 02 UTC su 29 metu 04 UTC
Vėjas 8 kt iš Rytų/Šiaurės Rytų
Tapsmas
nuo 29 metu 10 UTC su 29 metu 12 UTC
Vėjas 3 kt nuo kintamojo kryptimis
Mažai debesys ne aukštis 3000 ft

TAF: WMKA 282300Z 2900/0100 05006KT 9999 FEW020 BECMG 2902/2904 06008KT BECMG 2910/2912 VRB03KT FEW030

Orai ataskaitas ir orų prognozės (METAR, TAF).

turimą stotys yra geltonos ir raudonos taškus žemėlapyje.

Perkelti pele per norėdami pamatyti stoties vardą.

Tada spustelėkite, norėdami matyti oro stebėjimo ir prognozės.

Norėdami pakeisti žemėlapį: spustelėkite ant žalios mygtukų su juodo kryžiaus žemyn,; žalią mygtuką su brūkšneliu, jei norite nutolinti; arba žalių rodyklių gretimoms žemėlapius.


METAR-TAF: